Terminal Aerodrome Forecast
Issued by NWS Paducah, KY

Home | Current Version | Previous Version | Text Only | Print | Product List | Glossary On
Versions: 1 2 3 4 5 6 7 8 9 10 11 12 13 14 15 16 17
331
FTUS43 KPAH 260520
TAFEVV
TAF
KEVV 260520Z 2606/2706 VRB03KT P6SM BKN150
     FM260900 00000KT 4SM BR BKN080
     FM261100 00000KT 1 1/2SM BR BKN080
     FM261400 27005KT P6SM BKN035
     FM262100 36005KT P6SM -SHRA VCTS SCT030CB
     FM270200 VRB02KT 6SM BR BKN250=

USA.gov is the U.S. government's official web portal to all federal, state and local government web resources and services.